webcam facing ski center webcam facing ski center


webcam facing south webcam facing south


Thunder radar blitzortung!


Rain radar rain snow radar


Visit our other sites:

Hotel Skamnos

Arachova Weather Station

Skamnos Weather Station

Skamnos Weather2

Arachova Weather2

WU Skamnos

WU Arachova


Other Weather Sites:

Parnassos Snow Forecast

Parnassos Snow Report

Kelaria 1950m

Kelaria 2240m

Fterolaka 2080m



No particular awareness of the weather is required.    There are no Weather-warnings

Nearby METAR Reports

  
1089 - Arachova Meteo, Greece
Distance from station: S 10km
Updated: 22-10-2017 18:19
Few Clouds
Few Clouds  
 Wind from calm
Wind: Calm
Temperature:  20°C
Dew Point:  9°C
Humidity:  49%
Barometer:  1012 hPa
Clouds:  Few Clouds
Visibility:  10 km
Cloud details:  Few Clouds 1311 m
2017/10/22 15:19 1089 221519Z 00000KT 9999 FEW043 20/09 Q1012
1155 - Arachova2, Greece
Distance from station: S 10km
Updated: 22-10-2017 18:19
Few Clouds
Few Clouds  
 Wind from SSW
Wind: SSW 4 km/h
Temperature:  19°C
Dew Point:  9°C
Humidity:  52%
Barometer:  1013 hPa
Clouds:  Few Clouds
Visibility:  10 km
Cloud details:  Few Clouds 1158 m
2017/10/22 15:19 1155 221519Z 20202KT 9999 FEW038 19/09 Q1013
1184 - Arachova VillaFiloxenia, Greece
Distance from station: S 10km
Updated: 09-05-2017 15:04
NOT Current
Partly Cloudy
Partly Cloudy  
 Wind from calm
Wind: Calm
Temperature:  17°C
Dew Point:  9°C
Humidity:  59%
Barometer:  1007 hPa
Clouds:  Partly Cloudy
Visibility:  10 km
Cloud details:  Partly Cloudy 1006 m
2017/05/09 12:04 1184 091204Z 00000KT 9999 SCT033 17/09 Q1007
1250 - Parnassos Kelaria 1950m, Greece
Distance from station: E 3km
Updated: 22-10-2017 18:19
Few Clouds
Few Clouds  
 Wind from S
Wind: S 7 km/h
Temperature:  12°C
Dew Point:  5°C
Humidity:  63%
Barometer:  1016 hPa
Clouds:  Few Clouds
Visibility:  10 km
Cloud details:  Few Clouds 945 m
2017/10/22 15:19 1250 221519Z 18004KT 9999 FEW031 12/05 Q1016
1126 - Parnassos Fterolaka 2080m, Greece
Distance from station: E 3km
Updated: 21-03-2015 01:04
NOT Current
Few Clouds
Few Clouds  
 Wind from calm
Wind: Calm
Temperature:  -11°C
Dew Point:  -11°C
Humidity:  100%
Barometer:  1019 hPa
Clouds:  Few Clouds
Visibility:  6 km
Cloud details:  Few Clouds 305 m
2015/03/20 23:04 1126 202304Z 00000KT 6000 FEW010 M11/M11 Q1019
1382 - Parnassos Helcules 2240m, Greece
Distance from station: E 3km
Updated: 20-04-2015 13:20
NOT Current
Fog
Fog  
 Wind from SW
Wind: SW 7 km/h
Temperature:  1°C
Wind Chill:  -2°C
Dew Point:  1°C
Humidity:  100%
Barometer:  1009 hPa
Summary:  Fog
Visibility:  5 km
2015/04/20 10:20 1382 201020Z 22504KT 5000 FG 01/01 Q1009
1219 - Anrikyra, Greece
Distance from station: S 40km
Updated: 22-10-2017 18:19
Few Clouds
Few Clouds  
 Wind from SSE
Wind: SSE 4 km/h
Temperature:  20°C
Dew Point:  16°C
Humidity:  78%
Barometer:  1011 hPa
Clouds:  Few Clouds
Visibility:  8 km
Cloud details:  Few Clouds 518 m
2017/10/22 15:19 1219 221519Z 15702KT 8000 FEW017 20/16 Q1011
1015 - Galaxeidi, Greece
Distance from station: S 40km
Updated: 22-10-2017 18:19
Few Clouds
Few Clouds  
 Wind from N
Wind: N 7 km/h
Temperature:  24°C
Dew Point:  13°C
Humidity:  50%
Barometer:  1020 hPa
Clouds:  Few Clouds
Visibility:  10 km
Cloud details:  Few Clouds 1341 m
2017/10/22 15:19 1015 221519Z 36004KT 9999 FEW044 24/13 Q1020
1088 - Amfikleia, Greece
Distance from station: N 10km
Updated: 19-10-2017 22:34
NOT Current
Few Clouds
Few Clouds  
 Wind from calm
Wind: Calm
Temperature:  14°C
Dew Point:  8°C
Humidity:  67%
Barometer:  1018 hPa
Clouds:  Few Clouds
Visibility:  9 km
Cloud details:  Few Clouds 732 m
2017/10/19 19:34 1088 191934Z 00000KT 9000 FEW024 14/08 Q1018
1337 - Polydroso, Greece
Distance from station: N 10km
Updated: 22-10-2017 18:19
Partly Cloudy
Partly Cloudy  
 Wind from calm
Wind: Calm
Temperature:  22°C
Dew Point:  11°C
Humidity:  50%
Barometer:  1011 hPa
Clouds:  Partly Cloudy
Visibility:  10 km
Cloud details:  Partly Cloudy 1280 m
2017/10/22 15:19 1337 221519Z 00000KT 9999 SCT042 22/11 Q1011

Script developed by  Saratoga-weather.org Adapted for the template by  Weerstation Leuven